Terminal Aerodrome Forecast
Issued by NWS Sioux Falls, SD

Home | Current Version | Previous Version | Text Only | Print | Product List | Glossary On
Versions: 1 2 3 4 5 6 7 8 9 10 11 12 13
000
FTUS43 KFSD 241139
TAFFSD
TAF
KFSD 241139Z 2412/2512 10011KT 6SM -SHRA BR OVC009
     FM241600 10008KT P6SM OVC015
     FM242000 08006KT P6SM OVC021
     FM250200 03005KT P6SM OVC015=

USA.gov is the U.S. government's official web portal to all federal, state and local government web resources and services.